Time;durP1;ratioP1;P1;durP2;ratioP2;P2;SDS_P1;SDS_P2;PMS_P1;PMS_P2;Temp;Humidity;BMP_temperature;BMP_pressure;BME280_temperature;BME280_humidity;BME280_pressure;Samples;Min_cycle;Max_cycle;Signal;HPM_P1;HPM_P2
2024/04/15 00:00:13;;;;;;;59.10;5.23;;;;;;;;;;5490191;26;21135;-70
2024/04/15 00:02:42;;;;;;;59.37;4.90;;;;;;;;;;5489880;26;20537;-71
2024/04/15 00:05:08;;;;;;;58.40;5.40;;;;;;;;;;5489957;26;20572;-71
2024/04/15 00:07:40;;;;;;;58.90;5.00;;;;;;;;;;5490121;26;20566;-71
2024/04/15 00:10:06;;;;;;;58.73;4.83;;;;;;;;;;5490129;26;20927;-70
2024/04/15 00:12:35;;;;;;;57.87;4.70;;;;;;;;;;5490046;26;20518;-70
2024/04/15 00:15:01;;;;;;;62.27;5.60;;;;;;;;;;5490166;26;20469;-71
2024/04/15 00:17:30;;;;;;;59.47;4.77;;;;;;;;;;5490114;26;20793;-71
2024/04/15 00:19:56;;;;;;;63.33;4.77;;;;;;;;;;5490054;26;20486;-70
2024/04/15 00:22:25;;;;;;;59.33;5.03;;;;;;;;;;5489562;26;20457;-70
2024/04/15 00:24:54;;;;;;;59.30;5.63;;;;;;;;;;5489520;26;21098;-70
2024/04/15 00:27:22;;;;;;;58.50;5.20;;;;;;;;;;5489959;26;20589;-71
2024/04/15 00:29:48;;;;;;;58.20;4.87;;;;;;;;;;5489753;26;20586;-70
2024/04/15 00:32:17;;;;;;;60.57;5.43;;;;;;;;;;5489572;26;20567;-70
2024/04/15 00:34:43;;;;;;;59.13;5.03;;;;;;;;;;5489831;26;20469;-70
2024/04/15 00:37:12;;;;;;;58.90;5.07;;;;;;;;;;5490635;26;20551;-71
2024/04/15 00:39:38;;;;;;;59.10;5.30;;;;;;;;;;5489675;26;20583;-70
2024/04/15 00:42:10;;;;;;;61.00;4.53;;;;;;;;;;5489195;26;20470;-70
2024/04/15 00:44:36;;;;;;;59.20;5.00;;;;;;;;;;5489530;26;20508;-71
2024/04/15 00:47:05;;;;;;;58.90;5.20;;;;;;;;;;5490463;26;20458;-71
2024/04/15 00:49:32;;;;;;;58.43;4.70;;;;;;;;;;5489421;26;20466;-71
2024/04/15 00:52:02;;;;;;;57.30;4.50;;;;;;;;;;5489140;26;20517;-71
2024/04/15 00:54:29;;;;;;;58.80;4.50;;;;;;;;;;5489266;26;20601;-71
2024/04/15 00:56:58;;;;;;;58.87;5.50;;;;;;;;;;5489532;26;20457;-71
2024/04/15 00:59:28;;;;;;;58.50;4.53;;;;;;;;;;5489924;26;20474;-71
2024/04/15 01:01:57;;;;;;;58.27;3.90;;;;;;;;;;5487573;26;20454;-71
2024/04/15 01:04:23;;;;;;;58.10;4.27;;;;;;;;;;5489869;26;20477;-70
2024/04/15 01:06:53;;;;;;;58.83;4.27;;;;;;;;;;5489013;26;20462;-70
2024/04/15 01:09:19;;;;;;;58.97;4.70;;;;;;;;;;5489352;26;20496;-71
2024/04/15 01:11:48;;;;;;;58.70;4.27;;;;;;;;;;5489036;26;20978;-70
2024/04/15 01:14:14;;;;;;;58.47;4.30;;;;;;;;;;5489714;26;20588;-70
2024/04/15 01:16:45;;;;;;;57.97;4.00;;;;;;;;;;5489424;26;20509;-70
2024/04/15 01:19:11;;;;;;;57.40;3.97;;;;;;;;;;5489463;26;20608;-70
2024/04/15 01:21:40;;;;;;;58.20;4.33;;;;;;;;;;5488735;26;20567;-69
2024/04/15 01:24:09;;;;;;;57.13;3.80;;;;;;;;;;5489011;26;20882;-70
2024/04/15 01:26:37;;;;;;;56.87;3.53;;;;;;;;;;5489614;26;21068;-70
2024/04/15 01:29:04;;;;;;;57.80;4.67;;;;;;;;;;5489737;26;20493;-69
2024/04/15 01:31:32;;;;;;;58.00;3.80;;;;;;;;;;5489097;26;20458;-69
2024/04/15 01:33:59;;;;;;;60.67;4.27;;;;;;;;;;5488971;26;20545;-70
2024/04/15 01:36:27;;;;;;;57.87;4.50;;;;;;;;;;5489127;26;20504;-70
2024/04/15 01:38:53;;;;;;;58.00;4.60;;;;;;;;;;5489162;26;21099;-70
2024/04/15 01:41:25;;;;;;;57.17;3.63;;;;;;;;;;5489133;26;20815;-70
2024/04/15 01:43:51;;;;;;;56.87;3.67;;;;;;;;;;5488361;26;20794;-69
2024/04/15 01:46:20;;;;;;;59.07;4.43;;;;;;;;;;5489001;26;20466;-70
2024/04/15 01:48:46;;;;;;;58.00;4.50;;;;;;;;;;5486847;26;20462;-70
2024/04/15 01:51:15;;;;;;;58.10;4.53;;;;;;;;;;5488905;26;20981;-70
2024/04/15 01:53:41;;;;;;;58.87;4.87;;;;;;;;;;5488162;26;20473;-70
2024/04/15 01:56:10;;;;;;;58.07;4.60;;;;;;;;;;5488870;26;20482;-69
2024/04/15 01:58:39;;;;;;;58.10;4.70;;;;;;;;;;5488579;26;20620;-70
2024/04/15 02:01:08;;;;;;;63.10;5.60;;;;;;;;;;5488419;26;20450;-70
2024/04/15 02:03:34;;;;;;;58.40;4.30;;;;;;;;;;5487709;26;20482;-69
2024/04/15 02:06:03;;;;;;;59.47;4.87;;;;;;;;;;5488676;26;20513;-69
2024/04/15 02:08:29;;;;;;;60.10;5.10;;;;;;;;;;5488410;26;20514;-70
2024/04/15 02:10:57;;;;;;;57.73;4.00;;;;;;;;;;5488530;26;21043;-70
2024/04/15 02:13:23;;;;;;;57.30;4.00;;;;;;;;;;5486910;26;20474;-70
2024/04/15 02:15:55;;;;;;;57.47;3.87;;;;;;;;;;5489166;26;20467;-70
2024/04/15 02:18:21;;;;;;;62.67;4.47;;;;;;;;;;5489024;26;20985;-70
2024/04/15 02:20:50;;;;;;;58.60;3.77;;;;;;;;;;5488254;26;20454;-70
2024/04/15 02:23:16;;;;;;;58.50;4.03;;;;;;;;;;5487802;26;20470;-70
2024/04/15 02:25:45;;;;;;;58.80;4.40;;;;;;;;;;5488117;26;20454;-69
2024/04/15 02:28:11;;;;;;;62.50;4.67;;;;;;;;;;5488072;26;20536;-70
2024/04/15 02:30:39;;;;;;;59.90;4.43;;;;;;;;;;5488327;26;20506;-70
2024/04/15 02:33:08;;;;;;;60.70;4.07;;;;;;;;;;5487393;26;20462;-70
2024/04/15 02:35:37;;;;;;;58.00;3.87;;;;;;;;;;5487929;26;20506;-70
2024/04/15 02:38:04;;;;;;;57.80;3.77;;;;;;;;;;5487884;26;20535;-70
2024/04/15 02:40:33;;;;;;;57.57;3.90;;;;;;;;;;5488017;26;20928;-70
2024/04/15 02:42:59;;;;;;;59.20;4.07;;;;;;;;;;5487817;26;20510;-71
2024/04/15 02:45:28;;;;;;;57.37;3.90;;;;;;;;;;5487802;26;20458;-70
2024/04/15 02:47:54;;;;;;;57.37;4.13;;;;;;;;;;5487841;26;20579;-70
2024/04/15 02:50:25;;;;;;;57.23;4.00;;;;;;;;;;5487532;26;20526;-70
2024/04/15 02:52:51;;;;;;;58.33;3.80;;;;;;;;;;5487994;26;20510;-70
2024/04/15 02:55:20;;;;;;;57.77;3.60;;;;;;;;;;5488137;26;20508;-70
2024/04/15 02:57:46;;;;;;;61.37;4.07;;;;;;;;;;5488075;26;20571;-70
2024/04/15 03:00:15;;;;;;;58.00;3.60;;;;;;;;;;5487501;26;20474;-70
2024/04/15 03:02:41;;;;;;;57.27;3.60;;;;;;;;;;5486876;26;21119;-70
2024/04/15 03:05:10;;;;;;;60.07;4.90;;;;;;;;;;5487394;26;20562;-70
2024/04/15 03:07:39;;;;;;;58.37;4.23;;;;;;;;;;5487902;26;20469;-70
2024/04/15 03:10:08;;;;;;;58.50;4.03;;;;;;;;;;5487658;26;20529;-70
2024/04/15 03:12:34;;;;;;;59.60;4.20;;;;;;;;;;5487189;26;20564;-70
2024/04/15 03:15:03;;;;;;;60.23;4.50;;;;;;;;;;5487287;26;20986;-70
2024/04/15 03:17:29;;;;;;;59.10;4.30;;;;;;;;;;5487362;26;20462;-70
2024/04/15 03:19:58;;;;;;;57.30;3.50;;;;;;;;;;5487453;26;20545;-70
2024/04/15 03:22:24;;;;;;;57.80;4.20;;;;;;;;;;5487643;26;20454;-70
2024/04/15 03:24:55;;;;;;;57.77;3.90;;;;;;;;;;5485769;26;20521;-70
2024/04/15 03:27:22;;;;;;;57.93;3.70;;;;;;;;;;5487111;26;21599;-69
2024/04/15 03:29:51;;;;;;;61.20;3.90;;;;;;;;;;5487093;26;20477;-70
2024/04/15 03:32:17;;;;;;;57.30;3.67;;;;;;;;;;5486737;26;20592;-70
2024/04/15 03:34:45;;;;;;;57.23;3.80;;;;;;;;;;5487242;26;20458;-71
2024/04/15 03:37:14;;;;;;;58.93;3.93;;;;;;;;;;5487191;26;20518;-70
2024/04/15 03:39:43;;;;;;;57.53;3.77;;;;;;;;;;5487101;26;20579;-70
2024/04/15 03:42:14;;;;;;;57.10;3.70;;;;;;;;;;5486512;26;20474;-70
2024/04/15 03:44:40;;;;;;;57.20;3.70;;;;;;;;;;5486682;26;20470;-70
2024/04/15 03:47:09;;;;;;;57.87;3.87;;;;;;;;;;5486928;26;20884;-70
2024/04/15 03:49:35;;;;;;;59.17;3.97;;;;;;;;;;5486765;26;20589;-71
2024/04/15 03:52:04;;;;;;;58.43;3.97;;;;;;;;;;5486529;26;20494;-68
2024/04/15 03:54:33;;;;;;;57.80;3.60;;;;;;;;;;5486411;26;20477;-70
2024/04/15 03:57:01;;;;;;;57.10;4.20;;;;;;;;;;5486732;26;20579;-70
2024/04/15 03:59:30;;;;;;;57.87;4.47;;;;;;;;;;5486820;26;20584;-70
2024/04/15 04:01:59;;;;;;;59.20;4.50;;;;;;;;;;5486078;26;20446;-70
2024/04/15 04:04:26;;;;;;;57.37;4.07;;;;;;;;;;5486622;26;20470;-70
2024/04/15 04:06:55;;;;;;;61.13;4.17;;;;;;;;;;5486417;26;21106;-70
2024/04/15 04:09:21;;;;;;;59.27;4.50;;;;;;;;;;5486444;26;20470;-70
2024/04/15 04:11:51;;;;;;;58.53;4.60;;;;;;;;;;5485639;26;21004;-70
2024/04/15 04:14:17;;;;;;;59.70;5.03;;;;;;;;;;5485954;26;20458;-70
2024/04/15 04:16:49;;;;;;;58.73;5.27;;;;;;;;;;5486501;26;20462;-70
2024/04/15 04:19:15;;;;;;;60.40;5.33;;;;;;;;;;5486864;26;20490;-70
2024/04/15 04:21:44;;;;;;;61.80;6.50;;;;;;;;;;5485774;26;20798;-70
2024/04/15 04:24:11;;;;;;;58.47;5.63;;;;;;;;;;5485694;26;20514;-70
2024/04/15 04:26:39;;;;;;;59.30;5.47;;;;;;;;;;5486183;26;20505;-70
2024/04/15 04:29:07;;;;;;;61.60;6.30;;;;;;;;;;5486179;26;20490;-71
2024/04/15 04:31:36;;;;;;;59.77;5.80;;;;;;;;;;5486130;26;20505;-70
2024/04/15 04:34:04;;;;;;;60.27;5.80;;;;;;;;;;5485815;26;20466;-70
2024/04/15 04:36:33;;;;;;;60.23;5.90;;;;;;;;;;5488212;26;20510;-70
2024/04/15 04:38:59;;;;;;;60.70;5.90;;;;;;;;;;5489543;26;20576;-70
2024/04/15 04:41:28;;;;;;;59.10;5.97;;;;;;;;;;5489743;26;20506;-70
2024/04/15 04:43:54;;;;;;;62.07;5.93;;;;;;;;;;5489086;26;20994;-70
2024/04/15 04:46:23;;;;;;;60.07;6.23;;;;;;;;;;5489528;26;21084;-70
2024/04/15 04:48:50;;;;;;;60.90;5.83;;;;;;;;;;5489742;26;20497;-70
2024/04/15 04:51:22;;;;;;;58.87;5.23;;;;;;;;;;5489786;26;20461;-71
2024/04/15 04:53:48;;;;;;;60.40;5.50;;;;;;;;;;5488926;26;20458;-71
2024/04/15 04:56:17;;;;;;;62.67;5.57;;;;;;;;;;5489722;26;20466;-71
2024/04/15 04:58:44;;;;;;;59.10;5.20;;;;;;;;;;5489340;26;20595;-70
2024/04/15 05:01:13;;;;;;;59.67;5.33;;;;;;;;;;5489311;26;20521;-70
2024/04/15 05:03:40;;;;;;;62.43;5.93;;;;;;;;;;5488608;26;20481;-70
2024/04/15 05:06:09;;;;;;;59.60;5.77;;;;;;;;;;5489843;26;20470;-70
2024/04/15 05:08:38;;;;;;;59.60;5.60;;;;;;;;;;5489667;26;20485;-69
2024/04/15 05:11:07;;;;;;;58.70;5.57;;;;;;;;;;5488839;26;20454;-70
2024/04/15 05:13:33;;;;;;;59.90;5.27;;;;;;;;;;5488639;26;20520;-70
2024/04/15 05:16:06;;;;;;;59.97;5.80;;;;;;;;;;5489658;26;20566;-70
2024/04/15 05:18:32;;;;;;;61.27;6.63;;;;;;;;;;5489556;26;20533;-70
2024/04/15 05:21:01;;;;;;;59.63;5.27;;;;;;;;;;5489559;26;20450;-70
2024/04/15 05:23:28;;;;;;;60.63;5.20;;;;;;;;;;5488570;26;20466;-70
2024/04/15 05:26:00;;;;;;;62.50;5.67;;;;;;;;;;5488619;26;20465;-71
2024/04/15 05:28:26;;;;;;;58.87;4.53;;;;;;;;;;5489104;26;20821;-70
2024/04/15 05:30:55;;;;;;;59.57;4.90;;;;;;;;;;5489085;26;20462;-70
2024/04/15 05:33:22;;;;;;;60.10;6.63;;;;;;;;;;5488613;26;20460;-70
2024/04/15 05:35:51;;;;;;;59.37;4.73;;;;;;;;;;5489629;26;20504;-70
2024/04/15 05:38:17;;;;;;;60.27;5.50;;;;;;;;;;5489864;26;20569;-71
2024/04/15 05:40:45;;;;;;;58.47;4.93;;;;;;;;;;5489154;26;21009;-71
2024/04/15 05:43:14;;;;;;;58.47;4.90;;;;;;;;;;5488174;26;20504;-71
2024/04/15 05:45:43;;;;;;;59.77;5.00;;;;;;;;;;5488951;26;20902;-71
2024/04/15 05:48:10;;;;;;;58.17;4.97;;;;;;;;;;5487965;26;21030;-70
2024/04/15 05:50:39;;;;;;;60.70;5.30;;;;;;;;;;5489134;26;20473;-70
2024/04/15 05:53:05;;;;;;;59.47;4.73;;;;;;;;;;5488330;26;20563;-71
2024/04/15 05:55:33;;;;;;;60.67;5.00;;;;;;;;;;5488866;26;20534;-70
2024/04/15 05:58:00;;;;;;;59.20;5.00;;;;;;;;;;5489287;26;20514;-70
2024/04/15 06:00:31;;;;;;;57.47;4.27;;;;;;;;;;5488849;26;20522;-70
2024/04/15 06:02:57;;;;;;;57.80;4.50;;;;;;;;;;5488561;26;20454;-71
2024/04/15 06:05:26;;;;;;;60.43;5.43;;;;;;;;;;5488956;26;20610;-71
2024/04/15 06:07:52;;;;;;;59.97;4.83;;;;;;;;;;5488885;26;20500;-69
2024/04/15 06:10:22;;;;;;;58.17;4.50;;;;;;;;;;5488740;26;20470;-71
2024/04/15 06:12:48;;;;;;;61.40;4.93;;;;;;;;;;5488259;26;20803;-68
2024/04/15 06:15:17;;;;;;;59.00;5.27;;;;;;;;;;5488359;26;20813;-69
2024/04/15 06:17:47;;;;;;;63.40;5.37;;;;;;;;;;5488588;26;20506;-69
2024/04/15 06:20:16;;;;;;;64.93;6.30;;;;;;;;;;5488492;26;20859;-69
2024/04/15 06:22:42;;;;;;;59.70;5.77;;;;;;;;;;5488014;26;20530;-69
2024/04/15 06:25:10;;;;;;;60.40;6.10;;;;;;;;;;5488302;26;20466;-69
2024/04/15 06:27:37;;;;;;;63.13;6.10;;;;;;;;;;5488365;26;20571;-69
2024/04/15 06:30:06;;;;;;;59.93;5.60;;;;;;;;;;5488449;26;20530;-69
2024/04/15 06:32:32;;;;;;;59.27;5.43;;;;;;;;;;5488658;26;20536;-69
2024/04/15 06:35:03;;;;;;;63.20;6.60;;;;;;;;;;5488267;26;20470;-70
2024/04/15 06:37:29;;;;;;;59.57;6.30;;;;;;;;;;5488303;26;20505;-70
2024/04/15 06:39:58;;;;;;;62.20;6.23;;;;;;;;;;5488263;26;20859;-70
2024/04/15 06:42:24;;;;;;;61.17;6.30;;;;;;;;;;5487617;26;20938;-70
2024/04/15 06:44:53;;;;;;;64.90;6.60;;;;;;;;;;5488775;26;20461;-70
2024/04/15 06:47:19;;;;;;;61.43;5.50;;;;;;;;;;5488079;26;20583;-70
2024/04/15 06:49:48;;;;;;;59.47;5.40;;;;;;;;;;5488307;26;20478;-69
2024/04/15 06:52:16;;;;;;;61.40;5.50;;;;;;;;;;5487576;26;20494;-70
2024/04/15 06:54:45;;;;;;;58.70;5.23;;;;;;;;;;5487994;26;20798;-69
2024/04/15 06:57:11;;;;;;;59.50;6.00;;;;;;;;;;5488242;26;20453;-70
2024/04/15 06:59:40;;;;;;;67.70;5.80;;;;;;;;;;5486242;26;20478;-70
2024/04/15 07:02:06;;;;;;;60.40;4.60;;;;;;;;;;5487574;26;20477;-70
2024/04/15 07:04:35;;;;;;;56.77;3.53;;;;;;;;;;5488074;26;20522;-70
2024/04/15 07:07:01;;;;;;;56.80;3.20;;;;;;;;;;5488051;26;20513;-68
2024/04/15 07:09:32;;;;;;;60.20;3.47;;;;;;;;;;5487650;26;20903;-70
2024/04/15 07:11:58;;;;;;;57.30;3.40;;;;;;;;;;5487370;26;21251;-70
2024/04/15 07:14:27;;;;;;;58.57;3.90;;;;;;;;;;5487686;26;20462;-70
2024/04/15 07:16:53;;;;;;;58.60;3.37;;;;;;;;;;5487606;26;20473;-70
2024/04/15 07:19:22;;;;;;;57.47;3.50;;;;;;;;;;5487802;26;20526;-70
2024/04/15 07:21:48;;;;;;;57.90;3.73;;;;;;;;;;5487033;26;20466;-70
2024/04/15 07:24:17;;;;;;;58.47;3.33;;;;;;;;;;5487213;26;20510;-70
2024/04/15 07:26:46;;;;;;;57.37;3.20;;;;;;;;;;5488314;26;20504;-69
2024/04/15 07:29:14;;;;;;;58.27;4.00;;;;;;;;;;5487324;26;20530;-70
2024/04/15 07:31:40;;;;;;;58.07;3.60;;;;;;;;;;5487119;26;20589;-69
2024/04/15 07:34:09;;;;;;;58.87;3.50;;;;;;;;;;5487069;26;20521;-70
2024/04/15 07:36:35;;;;;;;58.10;3.43;;;;;;;;;;5487266;26;20930;-69
2024/04/15 07:39:04;;;;;;;61.57;4.13;;;;;;;;;;5487045;26;20469;-70
2024/04/15 07:41:30;;;;;;;60.90;3.47;;;;;;;;;;5487032;26;20579;-70
2024/04/15 07:44:02;;;;;;;58.87;3.80;;;;;;;;;;5486360;26;20462;-69
2024/04/15 07:46:28;;;;;;;59.87;3.67;;;;;;;;;;5487378;26;20482;-70
2024/04/15 07:48:57;;;;;;;59.37;4.17;;;;;;;;;;5486994;26;20497;-69
2024/04/15 07:51:23;;;;;;;57.60;3.47;;;;;;;;;;5487195;26;20458;-70
2024/04/15 07:53:51;;;;;;;56.80;3.43;;;;;;;;;;5486205;26;20514;-70
2024/04/15 07:56:18;;;;;;;60.90;3.60;;;;;;;;;;5486822;26;20518;-69
2024/04/15 07:58:47;;;;;;;59.00;3.87;;;;;;;;;;5486827;26;20534;-70
2024/04/15 08:01:16;;;;;;;59.13;3.77;;;;;;;;;;5486968;26;20454;-70
2024/04/15 08:03:44;;;;;;;61.10;3.83;;;;;;;;;;5485756;26;20466;-69
2024/04/15 08:06:10;;;;;;;58.37;4.47;;;;;;;;;;5487470;26;20461;-70
2024/04/15 08:08:39;;;;;;;57.90;3.90;;;;;;;;;;5486516;26;20470;-70
2024/04/15 08:11:06;;;;;;;58.13;4.10;;;;;;;;;;5488259;26;20454;-69
2024/04/15 08:13:35;;;;;;;58.87;4.43;;;;;;;;;;5489462;26;20980;-70
2024/04/15 08:16:01;;;;;;;57.53;4.30;;;;;;;;;;5490429;26;20462;-71
2024/04/15 08:18:32;;;;;;;58.20;3.83;;;;;;;;;;5490662;26;20453;-70
2024/04/15 08:20:59;;;;;;;63.37;4.53;;;;;;;;;;5490436;26;20560;-70
2024/04/15 08:23:27;;;;;;;59.30;4.93;;;;;;;;;;5489481;26;20470;-70
2024/04/15 08:25:53;;;;;;;60.33;5.17;;;;;;;;;;5490572;26;20462;-71
2024/04/15 08:28:22;;;;;;;58.60;4.10;;;;;;;;;;5490092;26;20513;-71
2024/04/15 08:47:09;;;;;;;61.20;5.47;;;;;;;;;;5416446;25;20707;-68
2024/04/15 08:49:35;;;;;;;60.50;4.80;;;;;;;;;;5363132;26;20463;-68
2024/04/15 08:52:05;;;;;;;62.00;4.70;;;;;;;;;;5362616;26;20853;-68
2024/04/15 08:54:31;;;;;;;59.30;5.20;;;;;;;;;;5362970;26;20510;-68
2024/04/15 08:57:02;;;;;;;60.83;5.63;;;;;;;;;;5362741;26;20557;-68
2024/04/15 08:59:29;;;;;;;59.70;5.30;;;;;;;;;;5362667;26;20603;-68
2024/04/15 09:01:58;;;;;;;59.40;5.47;;;;;;;;;;5363330;26;20586;-68
2024/04/15 09:04:27;;;;;;;59.67;5.17;;;;;;;;;;5362944;26;20611;-68
2024/04/15 09:06:56;;;;;;;58.93;5.30;;;;;;;;;;5362270;26;20542;-68
2024/04/15 09:09:22;;;;;;;58.83;5.73;;;;;;;;;;5362638;26;20618;-68
2024/04/15 09:11:52;;;;;;;59.37;5.40;;;;;;;;;;5362914;26;21076;-68
2024/04/15 09:14:18;;;;;;;61.97;5.00;;;;;;;;;;5363620;26;20474;-68
2024/04/15 09:16:47;;;;;;;60.27;4.87;;;;;;;;;;5362378;26;20511;-68
2024/04/15 09:19:13;;;;;;;58.97;5.20;;;;;;;;;;5362459;26;20462;-68
2024/04/15 09:21:45;;;;;;;60.60;5.23;;;;;;;;;;5362483;26;20530;-68
2024/04/15 09:24:11;;;;;;;59.77;5.30;;;;;;;;;;5362636;26;20482;-68
2024/04/15 09:26:40;;;;;;;58.30;4.70;;;;;;;;;;5362180;26;20491;-68
2024/04/15 09:29:06;;;;;;;61.30;5.60;;;;;;;;;;5362678;26;20471;-68
2024/04/15 09:31:36;;;;;;;60.73;5.00;;;;;;;;;;5362666;26;20474;-68
2024/04/15 09:34:02;;;;;;;60.10;4.93;;;;;;;;;;5362427;26;20471;-69
2024/04/15 09:36:33;;;;;;;59.50;4.93;;;;;;;;;;5361958;26;20560;-68
2024/04/15 09:39:02;;;;;;;59.33;5.10;;;;;;;;;;5362277;26;20551;-69
2024/04/15 09:41:31;;;;;;;59.53;4.83;;;;;;;;;;5363270;26;20467;-69
2024/04/15 09:43:57;;;;;;;61.00;5.23;;;;;;;;;;5362991;26;20595;-68
2024/04/15 09:46:31;;;;;;;58.37;4.40;;;;;;;;;;5356647;26;20625;-69
2024/04/15 09:48:57;;;;;;;58.80;4.70;;;;;;;;;;5347152;26;20459;-69
2024/04/15 09:51:26;;;;;;;62.03;5.20;;;;;;;;;;5347369;26;20883;-69
2024/04/15 09:53:53;;;;;;;59.20;4.90;;;;;;;;;;5347945;26;20573;-68
2024/04/15 09:56:27;;;;;;;57.87;4.97;;;;;;;;;;5346878;26;20526;-69
2024/04/15 09:58:55;;;;;;;58.57;5.07;;;;;;;;;;5347399;26;20474;-69
2024/04/15 10:01:24;;;;;;;61.90;6.10;;;;;;;;;;5347341;26;20463;-69
2024/04/15 10:03:52;;;;;;;59.83;4.70;;;;;;;;;;5346992;26;20787;-69
2024/04/15 10:06:25;;;;;;;58.30;4.10;;;;;;;;;;5346556;26;20528;-69
2024/04/15 10:08:51;;;;;;;59.43;4.30;;;;;;;;;;5347239;26;20712;-69
2024/04/15 10:11:20;;;;;;;59.70;5.03;;;;;;;;;;5347180;26;21053;-69
2024/04/15 10:13:49;;;;;;;61.43;4.60;;;;;;;;;;5347990;26;20455;-69
2024/04/15 10:16:21;;;;;;;61.20;4.20;;;;;;;;;;5346407;26;20622;-69
2024/04/15 10:18:51;;;;;;;60.43;4.10;;;;;;;;;;5346919;26;20472;-69
2024/04/15 10:21:21;;;;;;;62.13;4.20;;;;;;;;;;5347740;26;20519;-69
2024/04/15 10:23:47;;;;;;;57.90;4.03;;;;;;;;;;5346977;26;20524;-69
2024/04/15 10:26:19;;;;;;;60.73;4.87;;;;;;;;;;5346198;26;20477;-69
2024/04/15 10:28:45;;;;;;;57.40;4.00;;;;;;;;;;5346514;26;20466;-69
2024/04/15 10:31:18;;;;;;;61.20;4.03;;;;;;;;;;5346401;26;20469;-69
2024/04/15 10:33:50;;;;;;;58.07;4.70;;;;;;;;;;5346605;26;20847;-69
2024/04/15 10:36:19;;;;;;;58.50;3.90;;;;;;;;;;5346319;26;20479;-69
2024/04/15 10:38:49;;;;;;;58.30;4.40;;;;;;;;;;5346643;26;20479;-69
2024/04/15 10:41:20;;;;;;;59.67;4.37;;;;;;;;;;5346683;26;20578;-69
2024/04/15 10:43:46;;;;;;;58.10;3.83;;;;;;;;;;5346741;26;20476;-69
2024/04/15 10:46:19;;;;;;;59.00;3.93;;;;;;;;;;5346049;26;20540;-69
2024/04/15 10:48:45;;;;;;;59.80;4.07;;;;;;;;;;5346822;26;20479;-69
2024/04/15 10:51:14;;;;;;;57.20;3.80;;;;;;;;;;5346912;26;20510;-69
2024/04/15 10:53:41;;;;;;;57.63;4.00;;;;;;;;;;5347049;26;20479;-69
2024/04/15 10:56:11;;;;;;;59.53;3.97;;;;;;;;;;5346252;26;20537;-69
2024/04/15 10:58:38;;;;;;;57.20;3.30;;;;;;;;;;5345428;26;21065;-69
2024/04/15 11:01:07;;;;;;;56.67;3.40;;;;;;;;;;5346918;26;20467;-69
2024/04/15 11:03:35;;;;;;;57.50;3.30;;;;;;;;;;5346453;26;20471;-69
2024/04/15 11:06:04;;;;;;;58.23;3.73;;;;;;;;;;5345950;26;20463;-69
2024/04/15 11:08:30;;;;;;;59.67;3.47;;;;;;;;;;5346179;26;21003;-69
2024/04/15 11:10:59;;;;;;;60.07;3.33;;;;;;;;;;5346435;26;20471;-69
2024/04/15 11:13:25;;;;;;;58.77;3.13;;;;;;;;;;5346534;26;20508;-69
2024/04/15 11:15:55;;;;;;;56.03;2.80;;;;;;;;;;5347134;26;20464;-69
2024/04/15 11:18:22;;;;;;;56.40;2.93;;;;;;;;;;5346307;26;20476;-69
2024/04/15 11:21:01;;;;;;;58.43;3.50;;;;;;;;;;5346363;26;20523;-69
2024/04/15 11:23:27;;;;;;;60.13;3.27;;;;;;;;;;5346369;26;20535;-69
2024/04/15 11:25:56;;;;;;;59.50;3.10;;;;;;;;;;5346052;26;20549;-69
2024/04/15 11:28:23;;;;;;;58.47;3.20;;;;;;;;;;5346167;26;20565;-69
2024/04/15 11:30:52;;;;;;;60.63;2.90;;;;;;;;;;5346723;26;20516;-69
2024/04/15 11:33:19;;;;;;;56.47;2.70;;;;;;;;;;5345204;26;20543;-69
2024/04/15 11:35:51;;;;;;;60.97;2.87;;;;;;;;;;5345647;26;20504;-69
2024/04/15 11:38:21;;;;;;;59.13;3.23;;;;;;;;;;5344792;26;20534;-69
2024/04/15 11:40:50;;;;;;;57.07;2.97;;;;;;;;;;5345704;26;20463;-69
2024/04/15 11:43:16;;;;;;;56.57;2.87;;;;;;;;;;5346383;26;20519;-68
2024/04/15 11:45:51;;;;;;;61.90;3.30;;;;;;;;;;5345968;26;20903;-69
2024/04/15 11:48:17;;;;;;;58.73;3.33;;;;;;;;;;5346054;26;20495;-69
2024/04/15 11:50:46;;;;;;;59.77;3.43;;;;;;;;;;5346887;26;20523;-69
2024/04/15 11:53:13;;;;;;;57.43;3.83;;;;;;;;;;5346776;26;20472;-69
2024/04/15 11:55:44;;;;;;;59.87;3.60;;;;;;;;;;5345737;26;20510;-69
2024/04/15 11:58:10;;;;;;;58.67;3.00;;;;;;;;;;5345989;26;20547;-69
2024/04/15 12:00:39;;;;;;;57.40;3.47;;;;;;;;;;5345598;26;20468;-69
2024/04/15 12:03:05;;;;;;;57.77;3.23;;;;;;;;;;5345632;26;20479;-69
2024/04/15 12:05:35;;;;;;;57.93;3.43;;;;;;;;;;5345470;26;20575;-69
2024/04/15 12:08:02;;;;;;;57.17;3.00;;;;;;;;;;5346282;26;20479;-69
2024/04/15 12:10:31;;;;;;;61.70;3.23;;;;;;;;;;5344869;26;20556;-69
2024/04/15 12:12:59;;;;;;;58.20;2.80;;;;;;;;;;5345262;26;20586;-69
2024/04/15 12:15:28;;;;;;;59.10;3.40;;;;;;;;;;5345026;26;20946;-69
2024/04/15 12:17:55;;;;;;;61.27;3.53;;;;;;;;;;5345453;26;20495;-69
2024/04/15 12:20:24;;;;;;;57.57;3.40;;;;;;;;;;5345624;26;20511;-69
2024/04/15 12:22:50;;;;;;;59.20;3.27;;;;;;;;;;5345082;26;20463;-69
2024/04/15 12:25:18;;;;;;;57.57;3.60;;;;;;;;;;5345468;26;20456;-69
2024/04/15 12:27:45;;;;;;;57.70;3.50;;;;;;;;;;5345486;26;20526;-69
2024/04/15 12:30:17;;;;;;;57.60;3.33;;;;;;;;;;5345906;26;20556;-69
2024/04/15 12:32:43;;;;;;;61.20;4.10;;;;;;;;;;5345135;26;20571;-69
2024/04/15 12:35:11;;;;;;;57.93;3.30;;;;;;;;;;5344945;26;20460;-70
2024/04/15 12:37:38;;;;;;;58.60;3.40;;;;;;;;;;5345093;26;20550;-70
2024/04/15 12:40:08;;;;;;;57.67;3.10;;;;;;;;;;5345516;26;20531;-70
2024/04/15 12:42:34;;;;;;;57.63;3.50;;;;;;;;;;5345686;26;20475;-70
2024/04/15 12:45:03;;;;;;;58.40;3.73;;;;;;;;;;5344697;26;20475;-70
2024/04/15 12:47:32;;;;;;;57.50;3.03;;;;;;;;;;5344595;26;20487;-68
2024/04/15 12:50:03;;;;;;;58.10;3.90;;;;;;;;;;5346391;26;20786;-69
2024/04/15 12:52:30;;;;;;;58.13;3.53;;;;;;;;;;5344945;26;20468;-70
2024/04/15 12:54:59;;;;;;;60.30;3.90;;;;;;;;;;5345614;26;20531;-69
2024/04/15 12:57:25;;;;;;;57.70;3.20;;;;;;;;;;5345127;26;20523;-69
2024/04/15 12:59:54;;;;;;;57.00;3.13;;;;;;;;;;5345673;26;20515;-69
2024/04/15 13:02:20;;;;;;;57.70;3.43;;;;;;;;;;5344566;26;20582;-70
2024/04/15 13:04:52;;;;;;;57.27;3.20;;;;;;;;;;5344334;26;20978;-69
2024/04/15 13:07:19;;;;;;;59.83;4.10;;;;;;;;;;5343911;26;20947;-69
2024/04/15 13:09:48;;;;;;;59.47;3.80;;;;;;;;;;5344401;26;20467;-69
2024/04/15 13:12:14;;;;;;;62.50;3.83;;;;;;;;;;5344649;26;20468;-70
2024/04/15 13:14:43;;;;;;;60.77;3.50;;;;;;;;;;5345171;26;20698;-72
2024/04/15 13:17:09;;;;;;;58.07;3.90;;;;;;;;;;5344160;26;20825;-70
2024/04/15 13:19:38;;;;;;;58.30;3.83;;;;;;;;;;5344011;26;20951;-69
2024/04/15 13:22:07;;;;;;;60.33;3.67;;;;;;;;;;5345651;26;20467;-69
2024/04/15 13:24:36;;;;;;;64.27;3.47;;;;;;;;;;5347826;26;20516;-70
2024/04/15 13:27:02;;;;;;;59.80;3.63;;;;;;;;;;5347133;26;20636;-70
2024/04/15 13:29:31;;;;;;;57.33;3.00;;;;;;;;;;5347631;26;20994;-69
2024/04/15 13:31:57;;;;;;;57.30;2.90;;;;;;;;;;5347472;26;20464;-69
2024/04/15 13:34:26;;;;;;;57.90;3.13;;;;;;;;;;5347567;26;20536;-70
2024/04/15 13:36:55;;;;;;;57.90;2.90;;;;;;;;;;5347468;26;20533;-69
2024/04/15 13:39:26;;;;;;;57.07;2.97;;;;;;;;;;5347784;26;20478;-69
2024/04/15 13:41:52;;;;;;;57.00;2.83;;;;;;;;;;5347752;26;20948;-69
2024/04/15 13:44:21;;;;;;;57.40;2.80;;;;;;;;;;5347360;26;20520;-69
2024/04/15 13:46:47;;;;;;;56.57;2.53;;;;;;;;;;5346623;26;20580;-70
2024/04/15 13:49:17;;;;;;;57.50;2.47;;;;;;;;;;5347710;26;20474;-70
2024/04/15 13:51:43;;;;;;;62.03;2.80;;;;;;;;;;5347347;26;20584;-69
2024/04/15 13:54:12;;;;;;;58.60;3.00;;;;;;;;;;5347445;26;21074;-69
2024/04/15 13:56:40;;;;;;;59.07;3.60;;;;;;;;;;5346814;26;20577;-70
2024/04/15 13:59:09;;;;;;;60.10;3.67;;;;;;;;;;5346902;26;20523;-70
2024/04/15 14:01:35;;;;;;;56.93;2.70;;;;;;;;;;5347256;26;20471;-70
2024/04/15 14:04:04;;;;;;;57.80;3.40;;;;;;;;;;5347486;26;20463;-70
2024/04/15 14:06:31;;;;;;;59.50;2.80;;;;;;;;;;5346515;26;20589;-69
2024/04/15 14:09:00;;;;;;;61.97;3.63;;;;;;;;;;5347482;26;20624;-69
2024/04/15 14:11:26;;;;;;;57.30;2.83;;;;;;;;;;5346799;26;20855;-70
2024/04/15 14:13:57;;;;;;;60.20;3.23;;;;;;;;;;5346618;26;20467;-69
2024/04/15 14:16:23;;;;;;;58.10;2.63;;;;;;;;;;5346718;26;20472;-69
2024/04/15 14:18:52;;;;;;;63.20;2.83;;;;;;;;;;5346712;26;20545;-69
2024/04/15 14:21:18;;;;;;;58.17;2.67;;;;;;;;;;5346825;26;20461;-69
2024/04/15 14:23:47;;;;;;;60.70;2.53;;;;;;;;;;5347048;26;20463;-69
2024/04/15 14:26:13;;;;;;;58.67;3.33;;;;;;;;;;5346746;26;20518;-69
2024/04/15 14:28:42;;;;;;;56.80;2.30;;;;;;;;;;5347134;26;20468;-69
2024/04/15 14:31:11;;;;;;;57.77;3.10;;;;;;;;;;5347389;26;20509;-70
2024/04/15 14:33:39;;;;;;;57.27;2.50;;;;;;;;;;5347216;26;20856;-69
2024/04/15 14:36:08;;;;;;;56.80;2.57;;;;;;;;;;5346451;26;20464;-69
2024/04/15 14:38:38;;;;;;;59.10;3.10;;;;;;;;;;5346798;26;20582;-70
2024/04/15 14:41:05;;;;;;;59.20;4.00;;;;;;;;;;5347082;26;20468;-69
2024/04/15 14:43:34;;;;;;;57.30;3.10;;;;;;;;;;5346654;26;20471;-69
2024/04/15 14:46:00;;;;;;;57.67;2.80;;;;;;;;;;5345893;26;20609;-69
2024/04/15 14:48:32;;;;;;;57.40;3.60;;;;;;;;;;5346497;26;20468;-69
2024/04/15 14:50:58;;;;;;;56.43;2.83;;;;;;;;;;5347139;26;20468;-69